Terminal Aerodrome Forecast
Issued by NWS Louisville, KY

Home | Current Version | Previous Version | Text Only | Print | Product List | Glossary On
Versions: 1 2 3 4 5 6 7 8 9 10 11 12 13 14 15 16 17 18 19 20 21 22 23 24 25 26
507
FTUS43 KLMK 272025 AAA
TAFSDF
TAF AMD
KSDF 272025Z 2720/2824 15008KT P6SM VCSH SCT008 BKN025
     FM280000 22010G25KT 3SM -TSRA BR BKN035CB
     FM280400 VRB06KT P6SM VCSH BKN035
     FM280700 22007KT P6SM BKN015
     FM281500 25012G20KT P6SM SCT025=

USA.gov is the U.S. government's official web portal to all federal, state and local government web resources and services.